Rhapsody Of The Seas — C6UA2 — position and weather

sailwx.info

Track history (hours):
 
Tides and Currents Weather Stations Pressure Air Temp Water Temp Dewpoint Dewpoint Depression Visibility Wind Speed Wind Dir Waves Ship Positions

Rhapsody Of The Seas

Last reported at 2016-May-01 17:17 UTC. Time now 2016-May-02 21:17 UTC.
Position N 42°22' E 017°59'.

Type: Passenger vessel. MMSI: 311805000.

Date/timePositionNaut miles runAvg speedWind from/ knotsBaromVisibWave heightAir tempDewpointWater temp
2016-May-01 17:17N 42°22' E 017°59'1520.8
2016-May-01 16:33N 42°21' E 018°19'1212.4
2016-May-01 15:33N 42°26' E 018°34'7 6.5
2016-May-01 14:33N 42°29' E 018°42'4 3.9
2016-May-01 13:33N 42°26' E 018°46'0 0.0
2016-May-01 12:33N 42°26' E 018°46'0 0.0
2016-May-01 11:31N 42°26' E 018°46'0 0.0
2016-May-01 10:34N 42°26' E 018°46'0 0.0
2016-May-01 09:34N 42°26' E 018°46'0 0.0
2016-May-01 08:34N 42°26' E 018°46'0 0.0
2016-May-01 07:34N 42°26' E 018°46'0 0.0
2016-May-01 06:21N 42°26' E 018°46'0 0.0
2016-May-01 05:33N 42°26' E 018°46'1 0.5
2016-May-01 04:33N 42°26' E 018°46'5 5.5
2016-May-01 03:34N 42°26' E 018°38'6 5.6
2016-May-01 02:34N 42°21' E 018°34'1212.3
2016-May-01 01:33N 42°09' E 018°36'1312.8
2016-May-01 00:32N 41°56' E 018°39'1513.4
2016-Apr-30 23:23N 41°41' E 018°40'9614.9
2016-Apr-30 17:00N 40°06' E 018°54'29413.7 350 / 171014.010.8 1.516.014.419.0
2016-Apr-29 19:29N 36°14' E 015°04'1314.3
2016-Apr-29 18:34N 36°06' E 014°51'1514.4
2016-Apr-29 17:33N 35°58' E 014°36'6 0.5
2016-Apr-29 04:33N 35°53' E 014°31'6 5.6
2016-Apr-29 03:33N 35°57' E 014°36'4314.0
2016-Apr-29 00:29N 36°23' E 015°18'1314.4
2016-Apr-28 23:34N 36°34' E 015°28'5913.9
2016-Apr-28 19:18N 37°33' E 015°36'1414.8
2016-Apr-28 18:23N 37°46' E 015°33'1214.7
2016-Apr-28 17:33N 37°59' E 015°31'1212.4
2016-Apr-28 16:33N 38°10' E 015°35'2 1.6
2016-Apr-28 15:29N 38°12' E 015°33'0 0.0
2016-Apr-28 14:32N 38°12' E 015°33'0 0.0
2016-Apr-28 13:32N 38°12' E 015°33'0 0.0
2016-Apr-28 12:32N 38°12' E 015°33'0 0.0
2016-Apr-28 11:32N 38°12' E 015°33'0 0.0
2016-Apr-28 10:32N 38°12' E 015°33'0 0.0
2016-Apr-28 09:29N 38°12' E 015°33'0 0.0
2016-Apr-28 08:32N 38°12' E 015°33'0 0.0
2016-Apr-28 07:32N 38°12' E 015°33'0 0.0
2016-Apr-28 06:32N 38°12' E 015°33'2 2.0
2016-Apr-28 05:33N 38°13' E 015°35'1010.0
2016-Apr-28 04:33N 38°23' E 015°39'1615.9
2016-Apr-28 03:31N 38°37' E 015°29'1514.4
2016-Apr-28 02:29N 38°50' E 015°21'10414.6
2016-Apr-27 19:20N 40°17' E 014°06'1114.6
2016-Apr-27 18:33N 40°29' E 014°06'1414.4
2016-Apr-27 17:33N 40°42' E 014°12'8 6.6
2016-Apr-27 16:19N 40°50' E 014°16'0 0.0
2016-Apr-27 14:19N 40°50' E 014°16'0 0.0
2016-Apr-27 12:31N 40°50' E 014°16'0 0.0
2016-Apr-27 04:18N 40°50' E 014°16'5 6.9
2016-Apr-27 03:33N 40°45' E 014°15'1010.4
2016-Apr-27 02:33N 40°39' E 014°04'10 9.6
2016-Apr-27 01:33N 40°38' E 013°52'2110.1
2016-Apr-26 23:29N 40°39' E 013°24'16710.1
2016-Apr-26 07:00N 41°12' E 009°48'   270 / 351011.010.8 2.014.012.318.0
2016-Apr-24 01:33N 41°07' E 002°08'1413.5
2016-Apr-24 00:33N 40°55' E 001°59'1414.3
2016-Apr-23 23:33N 40°42' E 001°51'1414.1
2016-Apr-23 22:33N 40°30' E 001°42'1414.0
2016-Apr-23 21:33N 40°17' E 001°33'1414.1
2016-Apr-23 20:33N 40°05' E 001°25'1414.1
2016-Apr-23 19:33N 39°52' E 001°16'4414.3
2016-Apr-23 16:30N 39°14' E 000°49'1414.3
2016-Apr-23 15:32N 39°02' E 000°41'7715.0
2016-Apr-23 10:24N 37°55' W 000°09'1314.9
2016-Apr-23 09:33N 37°45' W 000°18'1515.0
2016-Apr-23 08:33N 37°33' W 000°30'1514.9
2016-Apr-23 07:33N 37°23' W 000°44'1424.6
2016-Apr-23 07:00N 37°12' W 000°54'4 8.1 230 / 101017.010.8 0.517.015.419.0
2016-Apr-23 06:30N 37°13' W 000°59'230 8.9
2016-Apr-22 04:33N 35°58' W 005°29'  
Track history (hours):
 
Tides and Currents Weather Stations Pressure Air Temp Water Temp Dewpoint Dewpoint Depression Visibility Wind Speed Wind Dir Waves Ship Positions

Rhapsody Of The Seas

Last reported at 2016-May-01 17:17 UTC. Time now 2016-May-02 21:17 UTC.
Position N 42°22' E 017°59'.

Type: Passenger vessel. MMSI: 311805000.

Date/timePositionNaut miles runAvg speedWind from/ knotsBaromVisibWave heightAir tempDewpointWater temp
2016-May-01 17:17N 42°22' E 017°59'1520.8
2016-May-01 16:33N 42°21' E 018°19'1212.4
2016-May-01 15:33N 42°26' E 018°34'7 6.5
2016-May-01 14:33N 42°29' E 018°42'4 3.9
2016-May-01 13:33N 42°26' E 018°46'0 0.0
2016-May-01 12:33N 42°26' E 018°46'0 0.0
2016-May-01 11:31N 42°26' E 018°46'0 0.0
2016-May-01 10:34N 42°26' E 018°46'0 0.0
2016-May-01 09:34N 42°26' E 018°46'0 0.0
2016-May-01 08:34N 42°26' E 018°46'0 0.0
2016-May-01 07:34N 42°26' E 018°46'0 0.0
2016-May-01 06:21N 42°26' E 018°46'0 0.0
2016-May-01 05:33N 42°26' E 018°46'1 0.5
2016-May-01 04:33N 42°26' E 018°46'5 5.5
2016-May-01 03:34N 42°26' E 018°38'6 5.6
2016-May-01 02:34N 42°21' E 018°34'1212.3
2016-May-01 01:33N 42°09' E 018°36'1312.8
2016-May-01 00:32N 41°56' E 018°39'1513.4
2016-Apr-30 23:23N 41°41' E 018°40'9614.9
2016-Apr-30 17:00N 40°06' E 018°54'29413.7 350 / 171014.010.8 1.516.014.419.0
2016-Apr-29 19:29N 36°14' E 015°04'1314.3
2016-Apr-29 18:34N 36°06' E 014°51'1514.4
2016-Apr-29 17:33N 35°58' E 014°36'6 0.5
2016-Apr-29 04:33N 35°53' E 014°31'6 5.6
2016-Apr-29 03:33N 35°57' E 014°36'4314.0
2016-Apr-29 00:29N 36°23' E 015°18'1314.4
2016-Apr-28 23:34N 36°34' E 015°28'5913.9
2016-Apr-28 19:18N 37°33' E 015°36'1414.8
2016-Apr-28 18:23N 37°46' E 015°33'1214.7
2016-Apr-28 17:33N 37°59' E 015°31'1212.4
2016-Apr-28 16:33N 38°10' E 015°35'2 1.6
2016-Apr-28 15:29N 38°12' E 015°33'0 0.0
2016-Apr-28 14:32N 38°12' E 015°33'0 0.0
2016-Apr-28 13:32N 38°12' E 015°33'0 0.0
2016-Apr-28 12:32N 38°12' E 015°33'0 0.0
2016-Apr-28 11:32N 38°12' E 015°33'0 0.0
2016-Apr-28 10:32N 38°12' E 015°33'0 0.0
2016-Apr-28 09:29N 38°12' E 015°33'0 0.0
2016-Apr-28 08:32N 38°12' E 015°33'0 0.0
2016-Apr-28 07:32N 38°12' E 015°33'0 0.0
2016-Apr-28 06:32N 38°12' E 015°33'2 2.0
2016-Apr-28 05:33N 38°13' E 015°35'1010.0
2016-Apr-28 04:33N 38°23' E 015°39'1615.9
2016-Apr-28 03:31N 38°37' E 015°29'1514.4
2016-Apr-28 02:29N 38°50' E 015°21'10414.6
2016-Apr-27 19:20N 40°17' E 014°06'1114.6
2016-Apr-27 18:33N 40°29' E 014°06'1414.4
2016-Apr-27 17:33N 40°42' E 014°12'8 6.6
2016-Apr-27 16:19N 40°50' E 014°16'0 0.0
2016-Apr-27 14:19N 40°50' E 014°16'0 0.0
2016-Apr-27 12:31N 40°50' E 014°16'0 0.0
2016-Apr-27 04:18N 40°50' E 014°16'5 6.9
2016-Apr-27 03:33N 40°45' E 014°15'1010.4
2016-Apr-27 02:33N 40°39' E 014°04'10 9.6
2016-Apr-27 01:33N 40°38' E 013°52'2110.1
2016-Apr-26 23:29N 40°39' E 013°24'16710.1
2016-Apr-26 07:00N 41°12' E 009°48'   270 / 351011.010.8 2.014.012.318.0
2016-Apr-24 01:33N 41°07' E 002°08'1413.5
2016-Apr-24 00:33N 40°55' E 001°59'1414.3
2016-Apr-23 23:33N 40°42' E 001°51'1414.1
2016-Apr-23 22:33N 40°30' E 001°42'1414.0
2016-Apr-23 21:33N 40°17' E 001°33'1414.1
2016-Apr-23 20:33N 40°05' E 001°25'1414.1
2016-Apr-23 19:33N 39°52' E 001°16'4414.3
2016-Apr-23 16:30N 39°14' E 000°49'1414.3
2016-Apr-23 15:32N 39°02' E 000°41'7715.0
2016-Apr-23 10:24N 37°55' W 000°09'1314.9
2016-Apr-23 09:33N 37°45' W 000°18'1515.0
2016-Apr-23 08:33N 37°33' W 000°30'1514.9
2016-Apr-23 07:33N 37°23' W 000°44'1424.6
2016-Apr-23 07:00N 37°12' W 000°54'4 8.1 230 / 101017.010.8 0.517.015.419.0
2016-Apr-23 06:30N 37°13' W 000°59'230 8.9
2016-Apr-22 04:33N 35°58' W 005°29'  

Dump ship's entire track history